sensor_id;sensor_type;location;lat;lon;timestamp;pressure;altitude;pressure_sealevel;temperature;humidity
46583;BME280;32309;48.858;8.252;2023-10-13T00:01:42;100318.66;;;19.03;58.54
46583;BME280;32309;48.858;8.252;2023-10-13T00:03:42;100318.81;;;19.01;60.81
46583;BME280;32309;48.858;8.252;2023-10-13T00:05:42;100317.84;;;19.02;60.87
46583;BME280;32309;48.858;8.252;2023-10-13T00:07:43;100322.28;;;19.02;60.28
46583;BME280;32309;48.858;8.252;2023-10-13T00:09:43;100313.56;;;19.01;60.78
46583;BME280;32309;48.858;8.252;2023-10-13T00:11:44;100313.84;;;18.98;61.16
46583;BME280;32309;48.858;8.252;2023-10-13T00:13:44;100310.53;;;18.96;60.33
46583;BME280;32309;48.858;8.252;2023-10-13T00:15:50;100311.63;;;18.93;60.05
46583;BME280;32309;48.858;8.252;2023-10-13T00:17:57;100314.97;;;18.95;61.84
46583;BME280;32309;48.858;8.252;2023-10-13T00:19:58;100304.31;;;18.97;61.92
46583;BME280;32309;48.858;8.252;2023-10-13T00:22:00;100311.09;;;19.00;61.90
46583;BME280;32309;48.858;8.252;2023-10-13T00:24:08;100309.16;;;19.02;60.48
46583;BME280;32309;48.858;8.252;2023-10-13T00:26:13;100306.66;;;19.00;61.89
46583;BME280;32309;48.858;8.252;2023-10-13T00:28:18;100303.34;;;18.98;60.61
46583;BME280;32309;48.858;8.252;2023-10-13T00:30:23;100310.13;;;18.91;62.42
46583;BME280;32309;48.858;8.252;2023-10-13T00:32:33;100309.56;;;18.87;62.49
46583;BME280;32309;48.858;8.252;2023-10-13T00:34:37;100304.72;;;18.83;62.50
46583;BME280;32309;48.858;8.252;2023-10-13T00:36:38;100297.41;;;18.86;62.14
46583;BME280;32309;48.858;8.252;2023-10-13T00:38:57;100297.25;;;18.88;62.25
46583;BME280;32309;48.858;8.252;2023-10-13T00:40:57;100304.06;;;18.90;62.07
46583;BME280;32309;48.858;8.252;2023-10-13T00:43:06;100305.72;;;18.91;62.00
46583;BME280;32309;48.858;8.252;2023-10-13T00:45:18;100294.38;;;18.91;61.45
46583;BME280;32309;48.858;8.252;2023-10-13T00:47:18;100300.63;;;18.90;61.83
46583;BME280;32309;48.858;8.252;2023-10-13T00:49:37;100292.97;;;18.87;61.15
46583;BME280;32309;48.858;8.252;2023-10-13T00:51:39;100287.88;;;18.85;60.94
46583;BME280;32309;48.858;8.252;2023-10-13T00:53:47;100291.06;;;18.89;61.23
46583;BME280;32309;48.858;8.252;2023-10-13T00:55:47;100290.78;;;18.92;61.26
46583;BME280;32309;48.858;8.252;2023-10-13T00:57:53;100290.94;;;18.90;60.28
46583;BME280;32309;48.858;8.252;2023-10-13T00:59:57;100297.00;;;18.91;59.61
46583;BME280;32309;48.858;8.252;2023-10-13T01:01:59;100292.59;;;18.91;60.39
46583;BME280;32309;48.858;8.252;2023-10-13T01:04:20;100291.88;;;18.89;59.64
46583;BME280;32309;48.858;8.252;2023-10-13T01:06:21;100290.94;;;18.90;60.02
46583;BME280;32309;48.858;8.252;2023-10-13T01:08:34;100293.69;;;18.89;59.97
46583;BME280;32309;48.858;8.252;2023-10-13T01:10:37;100284.00;;;18.89;60.04
46583;BME280;32309;48.858;8.252;2023-10-13T01:12:38;100287.34;;;18.91;59.20
46583;BME280;32309;48.858;8.252;2023-10-13T01:14:38;100288.97;;;18.92;58.48
46583;BME280;32309;48.858;8.252;2023-10-13T01:16:38;100286.22;;;18.94;58.55
46583;BME280;32309;48.858;8.252;2023-10-13T01:18:44;100287.84;;;18.95;57.47
46583;BME280;32309;48.858;8.252;2023-10-13T01:20:48;100283.16;;;18.99;57.78
46583;BME280;32309;48.858;8.252;2023-10-13T01:22:52;100276.94;;;19.00;57.12
46583;BME280;32309;48.858;8.252;2023-10-13T01:24:55;100279.28;;;19.03;57.10
46583;BME280;32309;48.858;8.252;2023-10-13T01:27:05;100272.09;;;19.05;56.46
46583;BME280;32309;48.858;8.252;2023-10-13T01:29:17;100277.34;;;19.05;55.74
46583;BME280;32309;48.858;8.252;2023-10-13T01:31:19;100280.63;;;19.07;55.84
46583;BME280;32309;48.858;8.252;2023-10-13T01:33:27;100281.34;;;19.09;55.96
46583;BME280;32309;48.858;8.252;2023-10-13T01:35:28;100281.19;;;19.10;55.73
46583;BME280;32309;48.858;8.252;2023-10-13T01:37:36;100274.16;;;19.11;55.68
46583;BME280;32309;48.858;8.252;2023-10-13T01:39:36;100268.75;;;19.12;55.55
46583;BME280;32309;48.858;8.252;2023-10-13T01:41:37;100272.19;;;19.13;54.94
46583;BME280;32309;48.858;8.252;2023-10-13T01:43:39;100264.31;;;19.13;55.29
46583;BME280;32309;48.858;8.252;2023-10-13T01:45:40;100258.09;;;19.14;55.27
46583;BME280;32309;48.858;8.252;2023-10-13T01:47:47;100244.00;;;19.15;55.53
46583;BME280;32309;48.858;8.252;2023-10-13T01:49:50;100244.00;;;19.15;55.49
46583;BME280;32309;48.858;8.252;2023-10-13T01:51:51;100245.78;;;19.15;55.30
46583;BME280;32309;48.858;8.252;2023-10-13T01:53:51;100239.56;;;19.16;55.55
46583;BME280;32309;48.858;8.252;2023-10-13T01:55:56;100239.56;;;19.16;56.05
46583;BME280;32309;48.858;8.252;2023-10-13T01:57:59;100243.00;;;19.16;56.44
46583;BME280;32309;48.858;8.252;2023-10-13T01:59:59;100233.47;;;19.15;56.44
46583;BME280;32309;48.858;8.252;2023-10-13T02:02:10;100231.13;;;19.12;56.33
46583;BME280;32309;48.858;8.252;2023-10-13T02:04:12;100221.88;;;19.08;56.40
46583;BME280;32309;48.858;8.252;2023-10-13T02:06:13;100224.81;;;19.05;56.69
46583;BME280;32309;48.858;8.252;2023-10-13T02:08:18;100220.66;;;19.02;57.39
46583;BME280;32309;48.858;8.252;2023-10-13T02:10:23;100216.69;;;18.98;57.50
46583;BME280;32309;48.858;8.252;2023-10-13T02:12:27;100220.56;;;18.94;58.07
46583;BME280;32309;48.858;8.252;2023-10-13T02:14:42;100212.81;;;18.92;58.23
46583;BME280;32309;48.858;8.252;2023-10-13T02:16:45;100211.41;;;18.88;57.99
46583;BME280;32309;48.858;8.252;2023-10-13T02:18:47;100212.81;;;18.83;58.49
46583;BME280;32309;48.858;8.252;2023-10-13T02:20:50;100210.66;;;18.78;58.74
46583;BME280;32309;48.858;8.252;2023-10-13T02:22:55;100212.88;;;18.73;59.10
46583;BME280;32309;48.858;8.252;2023-10-13T02:24:55;100209.84;;;18.68;59.35
46583;BME280;32309;48.858;8.252;2023-10-13T02:27:01;100205.00;;;18.63;59.20
46583;BME280;32309;48.858;8.252;2023-10-13T02:29:10;100205.59;;;18.57;59.41
46583;BME280;32309;48.858;8.252;2023-10-13T02:31:13;100206.72;;;18.54;59.87
46583;BME280;32309;48.858;8.252;2023-10-13T02:33:14;100212.91;;;18.43;59.69
46583;BME280;32309;48.858;8.252;2023-10-13T02:35:21;100207.41;;;18.37;59.74
46583;BME280;32309;48.858;8.252;2023-10-13T02:40:11;100205.63;;;18.27;59.96
46583;BME280;32309;48.858;8.252;2023-10-13T02:42:12;100195.97;;;18.28;60.07
46583;BME280;32309;48.858;8.252;2023-10-13T02:44:27;100198.72;;;18.26;60.32
46583;BME280;32309;48.858;8.252;2023-10-13T02:46:32;100190.31;;;18.23;60.20
46583;BME280;32309;48.858;8.252;2023-10-13T02:48:35;100190.88;;;18.17;60.24
46583;BME280;32309;48.858;8.252;2023-10-13T02:50:45;100192.94;;;18.13;60.16
46583;BME280;32309;48.858;8.252;2023-10-13T02:53:01;100184.78;;;18.06;60.54
46583;BME280;32309;48.858;8.252;2023-10-13T02:55:02;100184.13;;;18.04;60.57
46583;BME280;32309;48.858;8.252;2023-10-13T02:57:11;100181.09;;;17.99;60.41
46583;BME280;32309;48.858;8.252;2023-10-13T02:59:11;100181.22;;;17.98;60.47
46583;BME280;32309;48.858;8.252;2023-10-13T03:01:14;100180.38;;;17.97;60.22
46583;BME280;32309;48.858;8.252;2023-10-13T03:03:18;100178.59;;;17.98;59.60
46583;BME280;32309;48.858;8.252;2023-10-13T03:05:19;100184.97;;;17.95;59.80
46583;BME280;32309;48.858;8.252;2023-10-13T03:07:22;100186.88;;;17.93;59.38
46583;BME280;32309;48.858;8.252;2023-10-13T03:09:23;100178.56;;;17.88;59.22
46583;BME280;32309;48.858;8.252;2023-10-13T03:11:23;100179.41;;;17.88;59.53
46583;BME280;32309;48.858;8.252;2023-10-13T03:13:26;100173.31;;;17.88;59.11
46583;BME280;32309;48.858;8.252;2023-10-13T03:15:26;100169.72;;;17.89;59.24
46583;BME280;32309;48.858;8.252;2023-10-13T03:17:30;100172.34;;;17.89;59.10
46583;BME280;32309;48.858;8.252;2023-10-13T03:19:34;100174.97;;;17.89;59.16
46583;BME280;32309;48.858;8.252;2023-10-13T03:21:39;100169.72;;;17.89;58.93
46583;BME280;32309;48.858;8.252;2023-10-13T03:23:44;100170.44;;;17.91;59.09
46583;BME280;32309;48.858;8.252;2023-10-13T03:25:46;100165.31;;;17.89;59.01
46583;BME280;32309;48.858;8.252;2023-10-13T03:27:55;100173.19;;;17.89;58.78
46583;BME280;32309;48.858;8.252;2023-10-13T03:29:56;100173.19;;;17.89;58.64
46583;BME280;32309;48.858;8.252;2023-10-13T03:32:00;100168.91;;;17.88;58.26
46583;BME280;32309;48.858;8.252;2023-10-13T03:34:11;100165.44;;;17.88;58.78
46583;BME280;32309;48.858;8.252;2023-10-13T03:36:13;100162.00;;;17.87;58.86
46583;BME280;32309;48.858;8.252;2023-10-13T03:38:35;100162.00;;;17.87;58.60
46583;BME280;32309;48.858;8.252;2023-10-13T03:40:36;100155.91;;;17.87;58.81
46583;BME280;32309;48.858;8.252;2023-10-13T03:42:38;100156.78;;;17.87;58.87
46583;BME280;32309;48.858;8.252;2023-10-13T03:44:40;100162.00;;;17.87;58.51
46583;BME280;32309;48.858;8.252;2023-10-13T03:46:46;100157.72;;;17.86;58.96
46583;BME280;32309;48.858;8.252;2023-10-13T03:48:48;100159.66;;;17.84;58.46
46583;BME280;32309;48.858;8.252;2023-10-13T03:50:56;100159.78;;;17.83;58.46
46583;BME280;32309;48.858;8.252;2023-10-13T03:53:07;100153.72;;;17.82;59.18
46583;BME280;32309;48.858;8.252;2023-10-13T03:55:13;100153.03;;;17.80;59.53
46583;BME280;32309;48.858;8.252;2023-10-13T03:57:17;100149.72;;;17.78;59.38
46583;BME280;32309;48.858;8.252;2023-10-13T03:59:18;100154.13;;;17.77;59.13
46583;BME280;32309;48.858;8.252;2023-10-13T04:01:19;100148.22;;;17.75;59.51
46583;BME280;32309;48.858;8.252;2023-10-13T04:03:24;100153.72;;;17.72;59.18
46583;BME280;32309;48.858;8.252;2023-10-13T04:05:33;100145.31;;;17.69;59.86
46583;BME280;32309;48.858;8.252;2023-10-13T04:07:44;100145.47;;;17.67;60.16
46583;BME280;32309;48.858;8.252;2023-10-13T04:10:03;100140.34;;;17.66;59.72
46583;BME280;32309;48.858;8.252;2023-10-13T04:12:39;100142.69;;;17.59;59.28
46583;BME280;32309;48.858;8.252;2023-10-13T04:14:58;100143.34;;;17.51;59.53
46583;BME280;32309;48.858;8.252;2023-10-13T04:17:04;100146.25;;;17.48;60.25
46583;BME280;32309;48.858;8.252;2023-10-13T04:19:13;100134.00;;;17.49;60.52
46583;BME280;32309;48.858;8.252;2023-10-13T04:21:22;100135.78;;;17.48;60.50
46583;BME280;32309;48.858;8.252;2023-10-13T04:23:41;100133.44;;;17.45;60.35
46583;BME280;32309;48.858;8.252;2023-10-13T04:26:04;100133.03;;;17.40;60.44
46583;BME280;32309;48.858;8.252;2023-10-13T04:28:13;100133.16;;;17.38;60.50
46583;BME280;32309;48.858;8.252;2023-10-13T04:30:14;100131.78;;;17.34;60.49
46583;BME280;32309;48.858;8.252;2023-10-13T04:32:34;100127.75;;;17.30;60.57
46583;BME280;32309;48.858;8.252;2023-10-13T04:34:38;100125.56;;;17.25;60.91
46583;BME280;32309;48.858;8.252;2023-10-13T04:36:39;100122.94;;;17.25;60.96
46583;BME280;32309;48.858;8.252;2023-10-13T04:38:49;100118.78;;;17.23;61.60
46583;BME280;32309;48.858;8.252;2023-10-13T04:40:56;100117.28;;;17.20;61.25
46583;BME280;32309;48.858;8.252;2023-10-13T04:43:01;100118.38;;;17.18;61.17
46583;BME280;32309;48.858;8.252;2023-10-13T04:45:17;100116.84;;;17.15;61.76
46583;BME280;32309;48.858;8.252;2023-10-13T04:47:32;100113.66;;;17.11;61.67
46583;BME280;32309;48.858;8.252;2023-10-13T04:49:41;100112.03;;;17.10;61.44
46583;BME280;32309;48.858;8.252;2023-10-13T04:51:47;100115.59;;;17.09;60.69
46583;BME280;32309;48.858;8.252;2023-10-13T04:53:58;100117.78;;;17.04;61.37
46583;BME280;32309;48.858;8.252;2023-10-13T04:56:10;100103.44;;;16.99;61.60
46583;BME280;32309;48.858;8.252;2023-10-13T04:58:32;100111.31;;;16.99;61.53
46583;BME280;32309;48.858;8.252;2023-10-13T05:00:53;100099.97;;;16.98;61.68
46583;BME280;32309;48.858;8.252;2023-10-13T05:03:16;100097.78;;;16.93;61.62
46583;BME280;32309;48.858;8.252;2023-10-13T05:05:35;100090.06;;;16.92;61.60
46583;BME280;32309;48.858;8.252;2023-10-13T05:07:45;100088.50;;;16.89;61.42
46583;BME280;32309;48.858;8.252;2023-10-13T05:10:05;100088.63;;;16.88;60.93
46583;BME280;32309;48.858;8.252;2023-10-13T05:12:24;100090.44;;;16.87;61.44
46583;BME280;32309;48.858;8.252;2023-10-13T05:14:43;100085.06;;;16.89;61.37
46583;BME280;32309;48.858;8.252;2023-10-13T05:17:02;100082.31;;;16.90;61.11
46583;BME280;32309;48.858;8.252;2023-10-13T05:19:21;100089.09;;;16.93;61.68
46583;BME280;32309;48.858;8.252;2023-10-13T05:21:40;100087.19;;;16.95;61.57
46583;BME280;32309;48.858;8.252;2023-10-13T05:24:02;100089.66;;;16.96;61.73
46583;BME280;32309;48.858;8.252;2023-10-13T05:26:22;100093.78;;;16.99;61.57
46583;BME280;32309;48.858;8.252;2023-10-13T05:28:42;100093.94;;;16.98;61.42
46583;BME280;32309;48.858;8.252;2023-10-13T05:31:03;100091.31;;;16.98;62.21
46583;BME280;32309;48.858;8.252;2023-10-13T05:33:23;100094.50;;;17.01;61.66
46583;BME280;32309;48.858;8.252;2023-10-13T05:36:01;100099.75;;;17.01;62.10
46583;BME280;32309;48.858;8.252;2023-10-13T05:38:29;100099.75;;;17.01;62.88
46583;BME280;32309;48.858;8.252;2023-10-13T05:40:58;100097.94;;;17.02;62.89
46583;BME280;32309;48.858;8.252;2023-10-13T05:43:18;100101.38;;;17.02;63.04
46583;BME280;32309;48.858;8.252;2023-10-13T05:45:40;100106.59;;;17.02;63.29
46583;BME280;32309;48.858;8.252;2023-10-13T05:47:59;100100.56;;;17.02;63.00
46583;BME280;32309;48.858;8.252;2023-10-13T05:50:12;100108.41;;;17.02;61.94
46583;BME280;32309;48.858;8.252;2023-10-13T05:54:51;100101.66;;;16.99;63.05
46583;BME280;32309;48.858;8.252;2023-10-13T05:57:35;100097.50;;;16.96;63.75
46583;BME280;32309;48.858;8.252;2023-10-13T05:59:55;100096.69;;;16.96;63.76
46583;BME280;32309;48.858;8.252;2023-10-13T06:11:04;100102.44;;;16.90;64.36
46583;BME280;32309;48.858;8.252;2023-10-13T06:13:27;100100.75;;;16.89;64.23
46583;BME280;32309;48.858;8.252;2023-10-13T06:15:47;100094.72;;;16.88;64.12
46583;BME280;32309;48.858;8.252;2023-10-13T06:20:16;100090.19;;;16.90;64.31
46583;BME280;32309;48.858;8.252;2023-10-13T06:22:35;100096.25;;;16.91;64.18
46583;BME280;32309;48.858;8.252;2023-10-13T06:25:02;100096.94;;;16.93;64.22
46583;BME280;32309;48.858;8.252;2023-10-13T06:27:21;100096.25;;;16.91;64.36
46583;BME280;32309;48.858;8.252;2023-10-13T06:29:40;100097.78;;;16.93;64.30
46583;BME280;32309;48.858;8.252;2023-10-13T06:31:44;100100.25;;;16.95;63.39
46583;BME280;32309;48.858;8.252;2023-10-13T06:33:46;100108.69;;;16.99;64.81
46583;BME280;32309;48.858;8.252;2023-10-13T06:40:10;100101.09;;;16.95;64.67
46583;BME280;32309;48.858;8.252;2023-10-13T06:42:30;100109.38;;;17.01;65.17
46583;BME280;32309;48.858;8.252;2023-10-13T06:44:35;100110.88;;;17.03;65.25
46583;BME280;32309;48.858;8.252;2023-10-13T06:46:42;100102.66;;;17.08;65.54
46583;BME280;32309;48.858;8.252;2023-10-13T06:48:49;100107.47;;;17.12;64.82
46583;BME280;32309;48.858;8.252;2023-10-13T06:51:02;100101.84;;;17.17;64.78
46583;BME280;32309;48.858;8.252;2023-10-13T06:53:20;100118.78;;;17.23;64.81
46583;BME280;32309;48.858;8.252;2023-10-13T06:55:28;100110.66;;;17.26;64.33
46583;BME280;32309;48.858;8.252;2023-10-13T06:57:40;100108.59;;;17.29;64.35
46583;BME280;32309;48.858;8.252;2023-10-13T06:59:43;100114.25;;;17.35;64.02
46583;BME280;32309;48.858;8.252;2023-10-13T07:01:43;100113.84;;;17.39;64.66
46583;BME280;32309;48.858;8.252;2023-10-13T07:03:44;100109.31;;;17.41;62.91
46583;BME280;32309;48.858;8.252;2023-10-13T07:05:52;100106.97;;;17.48;63.75
46583;BME280;32309;48.858;8.252;2023-10-13T07:07:56;100114.41;;;17.53;63.99
46583;BME280;32309;48.858;8.252;2023-10-13T07:13:15;100115.50;;;17.60;64.43
46583;BME280;32309;48.858;8.252;2023-10-13T07:15:56;100126.41;;;17.65;63.61
46583;BME280;32309;48.858;8.252;2023-10-13T07:18:08;100118.25;;;17.68;63.20
46583;BME280;32309;48.858;8.252;2023-10-13T07:20:08;100110.16;;;17.71;62.91
46583;BME280;32309;48.858;8.252;2023-10-13T07:22:15;100115.38;;;17.71;63.14
46583;BME280;32309;48.858;8.252;2023-10-13T07:24:21;100110.97;;;17.72;62.24
46583;BME280;32309;48.858;8.252;2023-10-13T07:26:22;100111.09;;;17.70;62.44
46583;BME280;32309;48.858;8.252;2023-10-13T07:28:23;100103.25;;;17.70;62.46
46583;BME280;32309;48.858;8.252;2023-10-13T07:30:23;100100.75;;;17.69;62.64
46583;BME280;32309;48.858;8.252;2023-10-13T07:32:32;100099.91;;;17.68;62.88
46583;BME280;32309;48.858;8.252;2023-10-13T07:34:34;100094.69;;;17.68;63.06
46583;BME280;32309;48.858;8.252;2023-10-13T07:36:38;100091.25;;;17.68;62.73
46583;BME280;32309;48.858;8.252;2023-10-13T07:38:39;100098.16;;;17.69;62.37
46583;BME280;32309;48.858;8.252;2023-10-13T07:40:43;100093.88;;;17.68;62.91
46583;BME280;32309;48.858;8.252;2023-10-13T07:45:08;100093.88;;;17.68;62.74
46583;BME280;32309;48.858;8.252;2023-10-13T07:47:12;100096.06;;;17.72;63.64
46583;BME280;32309;48.858;8.252;2023-10-13T07:49:20;100094.00;;;17.76;63.15
46583;BME280;32309;48.858;8.252;2023-10-13T07:51:42;100098.81;;;17.80;63.33
46583;BME280;32309;48.858;8.252;2023-10-13T07:53:51;100099.25;;;17.86;62.77
46583;BME280;32309;48.858;8.252;2023-10-13T07:55:54;100093.56;;;17.90;62.91
46583;BME280;32309;48.858;8.252;2023-10-13T07:57:56;100088.59;;;17.97;62.41
46583;BME280;32309;48.858;8.252;2023-10-13T07:59:59;100091.34;;;18.05;62.57
46583;BME280;32309;48.858;8.252;2023-10-13T08:02:11;100092.31;;;18.14;61.94
46583;BME280;32309;48.858;8.252;2023-10-13T08:04:12;100087.31;;;18.21;61.68
46583;BME280;32309;48.858;8.252;2023-10-13T08:06:16;100085.66;;;18.29;62.01
46583;BME280;32309;48.858;8.252;2023-10-13T08:08:17;100086.19;;;18.33;61.32
46583;BME280;32309;48.858;8.252;2023-10-13T08:10:18;100091.81;;;18.38;61.17
46583;BME280;32309;48.858;8.252;2023-10-13T08:12:36;100090.59;;;18.42;60.79
46583;BME280;32309;48.858;8.252;2023-10-13T08:14:37;100086.97;;;18.43;60.45
46583;BME280;32309;48.858;8.252;2023-10-13T08:21:26;100082.25;;;18.57;60.66
46583;BME280;32309;48.858;8.252;2023-10-13T08:26:28;100061.41;;;18.73;60.51
46583;BME280;32309;48.858;8.252;2023-10-13T08:28:47;100066.91;;;18.80;59.79
46583;BME280;32309;48.858;8.252;2023-10-13T08:30:54;100068.13;;;18.86;59.64
46583;BME280;32309;48.858;8.252;2023-10-13T08:32:54;100068.53;;;18.91;59.86
46583;BME280;32309;48.858;8.252;2023-10-13T08:34:58;100069.06;;;18.94;60.00
46583;BME280;32309;48.858;8.252;2023-10-13T08:37:20;100060.31;;;19.04;59.85
46583;BME280;32309;48.858;8.252;2023-10-13T08:39:21;100060.53;;;19.10;58.88
46583;BME280;32309;48.858;8.252;2023-10-13T08:41:57;100071.13;;;19.19;58.79
46583;BME280;32309;48.858;8.252;2023-10-13T08:44:11;100064.97;;;19.28;58.63
46583;BME280;32309;48.858;8.252;2023-10-13T08:46:31;100058.97;;;19.36;58.54
46583;BME280;32309;48.858;8.252;2023-10-13T08:48:52;100064.81;;;19.48;58.07
46583;BME280;32309;48.858;8.252;2023-10-13T08:51:04;100054.59;;;19.62;57.46
46583;BME280;32309;48.858;8.252;2023-10-13T08:53:11;100060.72;;;19.71;56.74
46583;BME280;32309;48.858;8.252;2023-10-13T08:55:26;100048.88;;;19.85;55.59
46583;BME280;32309;48.858;8.252;2023-10-13T08:57:55;100052.88;;;19.98;55.73
46583;BME280;32309;48.858;8.252;2023-10-13T09:00:02;100043.63;;;20.11;54.67
46583;BME280;32309;48.858;8.252;2023-10-13T09:02:22;100046.31;;;20.28;53.86
46583;BME280;32309;48.858;8.252;2023-10-13T09:04:43;100043.94;;;20.43;51.68
46583;BME280;32309;48.858;8.252;2023-10-13T09:06:56;100042.66;;;20.55;50.89
46583;BME280;32309;48.858;8.252;2023-10-13T09:09:09;100038.91;;;20.66;50.16
46583;BME280;32309;48.858;8.252;2023-10-13T09:11:26;100037.81;;;20.77;50.34
46583;BME280;32309;48.858;8.252;2023-10-13T09:13:33;100026.16;;;20.88;50.40
46583;BME280;32309;48.858;8.252;2023-10-13T09:15:43;100022.06;;;21.02;50.90
46583;BME280;32309;48.858;8.252;2023-10-13T09:18:25;100028.19;;;21.19;48.79
46583;BME280;32309;48.858;8.252;2023-10-13T09:20:45;100020.44;;;21.34;46.89
46583;BME280;32309;48.858;8.252;2023-10-13T09:22:46;100028.34;;;21.34;48.16
46583;BME280;32309;48.858;8.252;2023-10-13T09:25:01;100023.91;;;21.42;48.47
46583;BME280;32309;48.858;8.252;2023-10-13T09:27:04;100017.16;;;21.56;49.48
46583;BME280;32309;48.858;8.252;2023-10-13T09:29:14;100021.63;;;21.72;46.16
46583;BME280;32309;48.858;8.252;2023-10-13T09:31:21;100015.16;;;21.83;44.87
46583;BME280;32309;48.858;8.252;2023-10-13T09:33:27;100019.28;;;21.86;45.52
46583;BME280;32309;48.858;8.252;2023-10-13T09:35:32;100015.13;;;21.91;44.57
46583;BME280;32309;48.858;8.252;2023-10-13T09:37:34;100016.44;;;21.96;45.43
46583;BME280;32309;48.858;8.252;2023-10-13T09:39:37;100018.06;;;22.05;45.29
46583;BME280;32309;48.858;8.252;2023-10-13T09:41:44;100015.25;;;22.15;44.84
46583;BME280;32309;48.858;8.252;2023-10-13T09:43:47;100015.22;;;22.23;44.88
46583;BME280;32309;48.858;8.252;2023-10-13T09:45:51;100013.19;;;22.33;43.29
46583;BME280;32309;48.858;8.252;2023-10-13T09:48:09;100004.13;;;22.36;43.52
46583;BME280;32309;48.858;8.252;2023-10-13T09:50:16;100000.78;;;22.42;43.99
46583;BME280;32309;48.858;8.252;2023-10-13T09:52:24;100004.91;;;22.44;43.92
46583;BME280;32309;48.858;8.252;2023-10-13T09:54:26;99993.47;;;22.52;43.09
46583;BME280;32309;48.858;8.252;2023-10-13T09:56:44;99985.19;;;22.55;42.67
46583;BME280;32309;48.858;8.252;2023-10-13T09:59:02;99984.19;;;22.65;42.38
46583;BME280;32309;48.858;8.252;2023-10-13T10:01:19;99983.28;;;22.72;42.31
46583;BME280;32309;48.858;8.252;2023-10-13T10:03:31;99983.25;;;22.81;40.84
46583;BME280;32309;48.858;8.252;2023-10-13T10:05:36;99980.63;;;22.81;41.14
46583;BME280;32309;48.858;8.252;2023-10-13T10:07:56;99972.34;;;22.84;42.38
46583;BME280;32309;48.858;8.252;2023-10-13T10:10:01;99977.91;;;22.89;41.05
46583;BME280;32309;48.858;8.252;2023-10-13T10:17:20;99966.28;;;22.98;41.67
46583;BME280;32309;48.858;8.252;2023-10-13T10:19:30;99963.75;;;23.05;40.66
46583;BME280;32309;48.858;8.252;2023-10-13T10:21:36;99961.72;;;23.15;41.52
46583;BME280;32309;48.858;8.252;2023-10-13T10:23:48;99950.72;;;23.26;39.30
46583;BME280;32309;48.858;8.252;2023-10-13T10:25:54;99952.16;;;23.29;39.44
46583;BME280;32309;48.858;8.252;2023-10-13T10:28:11;99954.47;;;23.32;40.65
46583;BME280;32309;48.858;8.252;2023-10-13T10:30:23;99952.56;;;23.41;39.44
46583;BME280;32309;48.858;8.252;2023-10-13T10:32:36;99951.03;;;23.47;38.89
46583;BME280;32309;48.858;8.252;2023-10-13T10:34:37;99946.19;;;23.50;40.69
46583;BME280;32309;48.858;8.252;2023-10-13T10:36:37;99944.38;;;23.66;39.16
46583;BME280;32309;48.858;8.252;2023-10-13T10:38:52;99932.81;;;23.67;37.96
46583;BME280;32309;48.858;8.252;2023-10-13T10:41:00;99939.44;;;23.77;36.06
46583;BME280;32309;48.858;8.252;2023-10-13T10:43:07;99930.06;;;23.75;38.64
46583;BME280;32309;48.858;8.252;2023-10-13T10:45:48;99930.72;;;23.77;39.34
46583;BME280;32309;48.858;8.252;2023-10-13T10:47:51;99933.97;;;23.79;37.24
46583;BME280;32309;48.858;8.252;2023-10-13T10:50:00;99934.44;;;23.83;38.18
46583;BME280;32309;48.858;8.252;2023-10-13T10:52:10;99927.59;;;23.88;37.35
46583;BME280;32309;48.858;8.252;2023-10-13T10:55:03;99934.81;;;23.95;36.71
46583;BME280;32309;48.858;8.252;2023-10-13T10:59:49;99935.47;;;23.97;36.63
46583;BME280;32309;48.858;8.252;2023-10-13T11:02:09;99928.72;;;23.94;37.24
46583;BME280;32309;48.858;8.252;2023-10-13T11:04:15;99929.53;;;23.95;38.49
46583;BME280;32309;48.858;8.252;2023-10-13T11:06:18;99930.41;;;24.02;38.47
46583;BME280;32309;48.858;8.252;2023-10-13T11:08:24;99915.66;;;24.07;37.53
46583;BME280;32309;48.858;8.252;2023-10-13T11:10:46;99915.06;;;24.12;35.98
46583;BME280;32309;48.858;8.252;2023-10-13T11:12:56;99910.25;;;24.16;35.26
46583;BME280;32309;48.858;8.252;2023-10-13T11:15:13;99900.09;;;24.19;36.98
46583;BME280;32309;48.858;8.252;2023-10-13T11:17:22;99901.19;;;24.25;36.19
46583;BME280;32309;48.858;8.252;2023-10-13T11:19:42;99891.59;;;24.24;34.76
46583;BME280;32309;48.858;8.252;2023-10-13T11:21:43;99881.72;;;24.33;35.50
46583;BME280;32309;48.858;8.252;2023-10-13T11:23:43;99891.34;;;24.40;35.52
46583;BME280;32309;48.858;8.252;2023-10-13T11:25:44;99886.31;;;24.46;35.98
46583;BME280;32309;48.858;8.252;2023-10-13T11:27:45;99880.63;;;24.49;35.38
46583;BME280;32309;48.858;8.252;2023-10-13T11:29:51;99870.50;;;24.52;33.76
46583;BME280;32309;48.858;8.252;2023-10-13T11:31:54;99876.78;;;24.51;33.94
46583;BME280;32309;48.858;8.252;2023-10-13T11:33:58;99864.16;;;24.53;33.93
46583;BME280;32309;48.858;8.252;2023-10-13T11:36:05;99867.44;;;24.55;35.13
46583;BME280;32309;48.858;8.252;2023-10-13T11:38:15;99860.31;;;24.56;35.46
46583;BME280;32309;48.858;8.252;2023-10-13T11:40:24;99855.75;;;24.65;35.65
46583;BME280;32309;48.858;8.252;2023-10-13T11:42:43;99862.41;;;24.82;34.88
46583;BME280;32309;48.858;8.252;2023-10-13T11:44:47;99850.03;;;24.89;34.05
46583;BME280;32309;48.858;8.252;2023-10-13T11:47:01;99854.13;;;24.92;35.07
46583;BME280;32309;48.858;8.252;2023-10-13T11:49:24;99851.13;;;25.02;34.54
46583;BME280;32309;48.858;8.252;2023-10-13T11:51:27;99844.81;;;25.03;35.45
46583;BME280;32309;48.858;8.252;2023-10-13T11:53:32;99839.13;;;25.06;34.99
46583;BME280;32309;48.858;8.252;2023-10-13T11:55:32;99837.13;;;25.08;35.38
46583;BME280;32309;48.858;8.252;2023-10-13T11:57:33;99836.94;;;25.16;34.53
46583;BME280;32309;48.858;8.252;2023-10-13T11:59:33;99832.69;;;25.22;34.79